Time,TemperatureF,DewpointF,PressureIn,WindDirection,WindDirectionDegrees,WindSpeedMPH,WindSpeedGustMPH,Humidity,HourlyPrecipIn,Conditions,Clouds,dailyrainin,SoftwareType,DateUTC
2013-12-04 00:01:00,51.7,41.5,29.58,SSW,205,1.0,2.0,68,0.00,,,0.00,WUHU216DAVISVP2,2013-12-04 06:01:00,
2013-12-04 00:06:00,51.6,41.4,29.58,SE,144,0.0,2.0,68,0.00,,,0.00,WUHU216DAVISVP2,2013-12-04 06:06:00,
2013-12-04 00:11:00,51.5,41.7,29.57,SSE,150,0.0,2.0,69,0.00,,,0.00,WUHU216DAVISVP2,2013-12-04 06:11:00,
2013-12-04 00:16:00,51.8,41.9,29.57,ESE,121,0.0,2.0,69,0.00,,,0.00,WUHU216DAVISVP2,2013-12-04 06:16:00,
2013-12-04 00:21:00,52.1,42.4,29.58,SE,139,1.0,3.0,69,0.00,,,0.00,WUHU216DAVISVP2,2013-12-04 06:21:00,
2013-12-04 00:26:00,52.4,42.1,29.58,SE,139,1.0,3.0,68,0.00,,,0.00,WUHU216DAVISVP2,2013-12-04 06:26:00,
2013-12-04 00:31:00,52.5,42.4,29.58,SE,136,0.0,3.0,68,0.00,,,0.00,WUHU216DAVISVP2,2013-12-04 06:31:00,
2013-12-04 00:36:00,52.5,42.2,29.57,East,101,0.0,3.0,68,0.00,,,0.00,WUHU216DAVISVP2,2013-12-04 06:36:00,
2013-12-04 00:41:00,52.5,42.2,29.57,SSE,153,1.0,3.0,68,0.00,,,0.00,WUHU216DAVISVP2,2013-12-04 06:41:00,
2013-12-04 00:46:00,52.4,42.1,29.57,SE,132,3.0,4.0,68,0.00,,,0.00,WUHU216DAVISVP2,2013-12-04 06:46:00,
2013-12-04 00:51:00,52.4,42.1,29.57,ESE,105,1.0,4.0,68,0.00,,,0.00,WUHU216DAVISVP2,2013-12-04 06:51:00,
2013-12-04 00:56:00,52.4,42.3,29.58,SE,134,0.0,4.0,68,0.00,,,0.00,WUHU216DAVISVP2,2013-12-04 06:56:00,
2013-12-04 01:01:00,52.4,42.3,29.58,SE,124,2.0,4.0,68,0.00,,,0.00,WUHU216DAVISVP2,2013-12-04 07:01:00,
2013-12-04 01:06:00,52.3,42.5,29.57,ESE,108,2.0,3.0,69,0.00,,,0.00,WUHU216DAVISVP2,2013-12-04 07:06:00,
2013-12-04 01:11:00,52.2,42.4,29.57,SE,128,1.0,3.0,69,0.00,,,0.00,WUHU216DAVISVP2,2013-12-04 07:11:00,
2013-12-04 01:16:00,52.1,42.7,29.58,SE,142,1.0,4.0,70,0.00,,,0.00,WUHU216DAVISVP2,2013-12-04 07:16:00,
2013-12-04 01:21:00,52.1,42.7,29.58,SE,141,0.0,4.0,70,0.00,,,0.00,WUHU216DAVISVP2,2013-12-04 07:21:00,
2013-12-04 01:26:00,51.9,42.5,29.58,SE,142,0.0,3.0,70,0.00,,,0.00,WUHU216DAVISVP2,2013-12-04 07:26:00,
2013-12-04 01:31:00,51.7,42.3,29.58,SSE,161,0.0,3.0,70,0.00,,,0.00,WUHU216DAVISVP2,2013-12-04 07:31:00,
2013-12-04 01:36:00,51.4,42.4,29.58,ESE,105,0.0,2.0,71,0.00,,,0.00,WUHU216DAVISVP2,2013-12-04 07:36:00,
2013-12-04 01:41:00,51.1,42.1,29.58,SE,129,0.0,2.0,71,0.00,,,0.00,WUHU216DAVISVP2,2013-12-04 07:41:00,
2013-12-04 01:46:00,50.7,42.1,29.58,SE,128,0.0,2.0,72,0.00,,,0.00,WUHU216DAVISVP2,2013-12-04 07:46:00,
2013-12-04 01:51:00,50.2,41.6,29.58,SE,129,0.0,2.0,72,0.00,,,0.00,WUHU216DAVISVP2,2013-12-04 07:51:00,
2013-12-04 01:56:00,49.7,41.5,29.58,SSE,159,0.0,1.0,73,0.00,,,0.00,WUHU216DAVISVP2,2013-12-04 07:56:00,
2013-12-04 02:01:00,49.4,41.5,29.58,SSW,207,0.0,1.0,74,0.00,,,0.00,WUHU216DAVISVP2,2013-12-04 08:01:00,
2013-12-04 02:06:00,49.3,41.7,29.58,SE,146,0.0,1.0,75,0.00,,,0.00,WUHU216DAVISVP2,2013-12-04 08:06:00,
2013-12-04 02:11:00,49.6,42.3,29.58,SE,137,1.0,3.0,76,0.00,,,0.00,WUHU216DAVISVP2,2013-12-04 08:11:00,
2013-12-04 02:16:00,50.1,42.6,29.57,SE,129,1.0,3.0,75,0.00,,,0.00,WUHU216DAVISVP2,2013-12-04 08:16:00,
2013-12-04 02:21:00,50.5,42.9,29.58,SE,127,1.0,3.0,75,0.00,,,0.00,WUHU216DAVISVP2,2013-12-04 08:21:00,
2013-12-04 02:28:00,50.9,43.3,29.58,ESE,117,0.0,3.0,75,0.00,,,0.00,WUHU216DAVISVP2,2013-12-04 08:28:00,
2013-12-04 02:33:00,51.2,43.2,29.58,ESE,116,0.0,3.0,74,0.00,,,0.00,WUHU216DAVISVP2,2013-12-04 08:33:00,
2013-12-04 02:38:00,51.1,42.8,29.58,SE,131,1.0,3.0,73,0.00,,,0.00,WUHU216DAVISVP2,2013-12-04 08:38:00,
2013-12-04 02:43:00,51.0,43.1,29.58,SE,138,0.0,3.0,74,0.00,,,0.00,WUHU216DAVISVP2,2013-12-04 08:43:00,
2013-12-04 02:48:00,51.1,43.2,29.58,ESE,118,0.0,3.0,74,0.00,,,0.00,WUHU216DAVISVP2,2013-12-04 08:48:00,
2013-12-04 02:53:00,51.2,43.2,29.58,SE,136,1.0,3.0,74,0.00,,,0.00,WUHU216DAVISVP2,2013-12-04 08:53:00,
2013-12-04 02:58:00,51.4,43.4,29.59,SE,134,1.0,3.0,74,0.00,,,0.00,WUHU216DAVISVP2,2013-12-04 08:58:00,
2013-12-04 03:03:00,51.5,43.2,29.59,SE,134,3.0,3.0,73,0.00,,,0.00,WUHU216DAVISVP2,2013-12-04 09:03:00,
2013-12-04 03:08:00,51.8,43.5,29.59,ESE,113,1.0,3.0,73,0.00,,,0.00,WUHU216DAVISVP2,2013-12-04 09:08:00,
2013-12-04 03:13:00,52.2,43.9,29.59,ESE,117,2.0,3.0,73,0.00,,,0.00,WUHU216DAVISVP2,2013-12-04 09:13:00,
2013-12-04 03:18:00,52.4,43.7,29.59,SE,142,2.0,3.0,72,0.00,,,0.00,WUHU216DAVISVP2,2013-12-04 09:18:00,
2013-12-04 03:23:00,52.6,43.9,29.60,SSE,152,0.0,3.0,72,0.00,,,0.00,WUHU216DAVISVP2,2013-12-04 09:23:00,
2013-12-04 03:28:00,52.6,43.9,29.59,SE,131,2.0,4.0,72,0.00,,,0.00,WUHU216DAVISVP2,2013-12-04 09:28:00,
2013-12-04 03:33:00,52.6,43.9,29.59,SSE,148,1.0,4.0,72,0.00,,,0.00,WUHU216DAVISVP2,2013-12-04 09:33:00,
2013-12-04 03:38:00,52.7,44.0,29.59,ESE,122,1.0,4.0,72,0.00,,,0.00,WUHU216DAVISVP2,2013-12-04 09:38:00,
2013-12-04 03:43:00,52.7,44.0,29.59,SE,135,3.0,4.0,72,0.00,,,0.00,WUHU216DAVISVP2,2013-12-04 09:43:00,
2013-12-04 03:48:00,52.7,44.0,29.59,SE,131,1.0,4.0,72,0.00,,,0.00,WUHU216DAVISVP2,2013-12-04 09:48:00,
2013-12-04 03:53:00,52.7,44.0,29.60,SE,143,3.0,4.0,72,0.00,,,0.00,WUHU216DAVISVP2,2013-12-04 09:53:00,
2013-12-04 03:58:00,52.8,44.0,29.59,SE,124,2.0,4.0,72,0.00,,,0.00,WUHU216DAVISVP2,2013-12-04 09:58:00,
2013-12-04 04:03:00,52.7,43.9,29.60,SE,134,1.0,4.0,72,0.00,,,0.00,WUHU216DAVISVP2,2013-12-04 10:03:00,
2013-12-04 04:08:00,52.5,43.7,29.59,SE,131,1.0,4.0,72,0.00,,,0.00,WUHU216DAVISVP2,2013-12-04 10:08:00,
2013-12-04 04:13:00,52.2,43.5,29.60,ESE,117,3.0,5.0,72,0.00,,,0.00,WUHU216DAVISVP2,2013-12-04 10:13:00,
2013-12-04 04:18:00,51.9,43.6,29.60,SE,133,1.0,5.0,73,0.00,,,0.00,WUHU216DAVISVP2,2013-12-04 10:18:00,
2013-12-04 04:23:00,51.8,43.5,29.60,SE,135,1.0,5.0,73,0.00,,,0.00,WUHU216DAVISVP2,2013-12-04 10:23:00,
2013-12-04 04:28:00,51.5,43.6,29.60,ESE,105,0.0,5.0,74,0.00,,,0.00,WUHU216DAVISVP2,2013-12-04 10:28:00,
2013-12-04 04:33:00,51.4,43.5,29.60,SE,134,3.0,5.0,74,0.00,,,0.00,WUHU216DAVISVP2,2013-12-04 10:33:00,
2013-12-04 04:38:00,51.3,43.7,29.60,SE,139,1.0,4.0,75,0.00,,,0.00,WUHU216DAVISVP2,2013-12-04 10:38:00,
2013-12-04 04:43:00,51.3,43.6,29.60,SE,134,1.0,4.0,75,0.00,,,0.00,WUHU216DAVISVP2,2013-12-04 10:43:00,
2013-12-04 04:48:00,51.2,43.6,29.60,ESE,121,1.0,4.0,75,0.00,,,0.00,WUHU216DAVISVP2,2013-12-04 10:48:00,
2013-12-04 04:53:00,51.1,43.5,29.60,SSE,148,1.0,4.0,75,0.00,,,0.00,WUHU216DAVISVP2,2013-12-04 10:53:00,
2013-12-04 04:58:00,51.0,43.4,29.60,ESE,115,1.0,4.0,75,0.00,,,0.00,WUHU216DAVISVP2,2013-12-04 10:58:00,
2013-12-04 05:03:00,50.9,43.3,29.60,SE,139,0.0,4.0,75,0.00,,,0.00,WUHU216DAVISVP2,2013-12-04 11:03:00,
2013-12-04 05:08:00,50.8,43.2,29.60,SSE,156,0.0,4.0,75,0.00,,,0.00,WUHU216DAVISVP2,2013-12-04 11:08:00,
2013-12-04 05:13:00,50.6,43.4,29.60,South,177,1.0,4.0,76,0.00,,,0.00,WUHU216DAVISVP2,2013-12-04 11:13:00,
2013-12-04 05:18:00,50.3,43.1,29.60,SE,134,1.0,4.0,76,0.00,,,0.00,WUHU216DAVISVP2,2013-12-04 11:18:00,
2013-12-04 05:23:00,50.1,43.2,29.61,SSE,167,0.0,4.0,77,0.00,,,0.00,WUHU216DAVISVP2,2013-12-04 11:23:00,
2013-12-04 05:28:00,50.0,43.1,29.60,SSE,167,2.0,4.0,77,0.00,,,0.00,WUHU216DAVISVP2,2013-12-04 11:28:00,
2013-12-04 05:33:00,49.9,43.0,29.61,ESE,118,1.0,4.0,77,0.00,,,0.00,WUHU216DAVISVP2,2013-12-04 11:33:00,
2013-12-04 05:38:00,49.8,42.9,29.62,SSW,193,1.0,4.0,77,0.00,,,0.00,WUHU216DAVISVP2,2013-12-04 11:38:00,
2013-12-04 05:43:00,49.6,42.7,29.62,SE,142,0.0,4.0,77,0.00,,,0.00,WUHU216DAVISVP2,2013-12-04 11:43:00,
2013-12-04 05:48:00,49.2,42.7,29.61,SSE,160,0.0,3.0,78,0.00,,,0.00,WUHU216DAVISVP2,2013-12-04 11:48:00,
2013-12-04 05:53:00,49.0,42.5,29.62,SSW,200,1.0,3.0,78,0.00,,,0.00,WUHU216DAVISVP2,2013-12-04 11:53:00,
2013-12-04 05:58:00,48.8,42.6,29.62,SSW,204,1.0,3.0,79,0.00,,,0.00,WUHU216DAVISVP2,2013-12-04 11:58:00,
2013-12-04 06:03:00,48.5,42.3,29.62,SSW,212,0.0,2.0,79,0.00,,,0.00,WUHU216DAVISVP2,2013-12-04 12:03:00,
2013-12-04 06:08:00,48.1,42.3,29.62,SSW,211,0.0,2.0,80,0.00,,,0.00,WUHU216DAVISVP2,2013-12-04 12:08:00,
2013-12-04 06:13:00,47.8,41.9,29.62,SSW,210,0.0,2.0,80,0.00,,,0.00,WUHU216DAVISVP2,2013-12-04 12:13:00,
2013-12-04 06:18:00,47.4,41.9,29.63,SSW,211,0.0,1.0,81,0.00,,,0.00,WUHU216DAVISVP2,2013-12-04 12:18:00,
2013-12-04 06:23:00,46.9,41.4,29.63,SSW,210,0.0,1.0,81,0.00,,,0.00,WUHU216DAVISVP2,2013-12-04 12:23:00,
2013-12-04 06:28:00,46.5,41.3,29.63,SSW,210,0.0,1.0,82,0.00,,,0.00,WUHU216DAVISVP2,2013-12-04 12:28:00,
2013-12-04 06:33:00,46.0,41.1,29.63,SSW,211,0.0,1.0,83,0.00,,,0.00,WUHU216DAVISVP2,2013-12-04 12:33:00,
2013-12-04 06:38:00,45.6,41.0,29.64,SSW,195,0.0,1.0,84,0.00,,,0.00,WUHU216DAVISVP2,2013-12-04 12:38:00,
2013-12-04 06:43:00,45.3,40.7,29.64,SSE,158,0.0,3.0,84,0.00,,,0.00,WUHU216DAVISVP2,2013-12-04 12:43:00,
2013-12-04 06:48:00,45.5,41.2,29.65,South,169,0.0,3.0,85,0.00,,,0.00,WUHU216DAVISVP2,2013-12-04 12:48:00,
2013-12-04 06:53:00,45.9,41.9,29.65,SSW,211,0.0,3.0,86,0.00,,,0.00,WUHU216DAVISVP2,2013-12-04 12:53:00,
2013-12-04 06:58:00,46.3,42.0,29.65,South,170,0.0,3.0,85,0.00,,,0.00,WUHU216DAVISVP2,2013-12-04 12:58:00,
2013-12-04 07:03:00,46.5,42.2,29.65,SSW,210,0.0,1.0,85,0.00,,,0.00,WUHU216DAVISVP2,2013-12-04 13:03:00,
2013-12-04 07:08:00,46.5,41.9,29.66,SSW,210,0.0,1.0,84,0.00,,,0.00,WUHU216DAVISVP2,2013-12-04 13:08:00,
2013-12-04 07:13:00,46.7,42.1,29.66,SSW,210,1.0,1.0,84,0.00,,,0.00,WUHU216DAVISVP2,2013-12-04 13:13:00,
2013-12-04 07:18:00,46.8,42.2,29.66,SSW,208,0.0,1.0,84,0.00,,,0.00,WUHU216DAVISVP2,2013-12-04 13:18:00,
2013-12-04 07:23:00,46.8,42.2,29.66,SSW,208,0.0,1.0,84,0.00,,,0.00,WUHU216DAVISVP2,2013-12-04 13:23:00,
2013-12-04 07:28:00,46.7,42.1,29.67,SE,146,0.0,1.0,84,0.00,,,0.00,WUHU216DAVISVP2,2013-12-04 13:28:00,
2013-12-04 07:33:00,46.7,42.1,29.66,South,186,1.0,3.0,84,0.00,,,0.00,WUHU216DAVISVP2,2013-12-04 13:33:00,
2013-12-04 07:38:00,46.9,42.3,29.66,SSW,201,0.0,3.0,84,0.00,,,0.00,WUHU216DAVISVP2,2013-12-04 13:38:00,
2013-12-04 07:43:00,47.0,42.4,29.67,SSW,198,0.0,3.0,84,0.00,,,0.00,WUHU216DAVISVP2,2013-12-04 13:43:00,
2013-12-04 07:48:00,47.3,42.7,29.67,SSW,207,1.0,3.0,84,0.00,,,0.00,WUHU216DAVISVP2,2013-12-04 13:48:00,
2013-12-04 07:53:00,47.7,42.8,29.67,SSW,202,1.0,3.0,83,0.00,,,0.00,WUHU216DAVISVP2,2013-12-04 13:53:00,
2013-12-04 07:58:00,48.1,42.9,29.67,SE,143,1.0,3.0,82,0.00,,,0.00,WUHU216DAVISVP2,2013-12-04 13:58:00,
2013-12-04 08:03:00,48.6,43.4,29.68,SSE,165,2.0,4.0,82,0.00,,,0.00,WUHU216DAVISVP2,2013-12-04 14:03:00,
2013-12-04 08:08:00,49.0,43.4,29.68,SW,215,2.0,4.0,81,0.00,,,0.00,WUHU216DAVISVP2,2013-12-04 14:08:00,
2013-12-04 08:13:00,49.3,43.4,29.68,SSW,198,1.0,4.0,80,0.00,,,0.00,WUHU216DAVISVP2,2013-12-04 14:13:00,
2013-12-04 08:18:00,49.7,43.8,29.68,SSE,151,1.0,4.0,80,0.00,,,0.00,WUHU216DAVISVP2,2013-12-04 14:18:00,
2013-12-04 08:23:00,50.1,43.8,29.68,SSW,206,1.0,4.0,79,0.00,,,0.00,WUHU216DAVISVP2,2013-12-04 14:23:00,
2013-12-04 08:28:00,50.7,44.4,29.68,WSW,256,1.0,3.0,79,0.00,,,0.00,WUHU216DAVISVP2,2013-12-04 14:28:00,
2013-12-04 08:33:00,51.3,44.7,29.69,SW,233,3.0,4.0,78,0.00,,,0.00,WUHU216DAVISVP2,2013-12-04 14:33:00,
2013-12-04 08:38:00,51.6,45.0,29.70,SW,224,2.0,4.0,78,0.00,,,0.00,WUHU216DAVISVP2,2013-12-04 14:38:00,
2013-12-04 08:43:00,52.0,45.0,29.70,SW,218,1.0,4.0,77,0.00,,,0.00,WUHU216DAVISVP2,2013-12-04 14:43:00,
2013-12-04 08:48:00,52.6,45.7,29.70,SW,217,3.0,6.0,77,0.00,,,0.00,WUHU216DAVISVP2,2013-12-04 14:48:00,
2013-12-04 08:53:00,53.2,45.9,29.70,SW,232,2.0,6.0,76,0.00,,,0.00,WUHU216DAVISVP2,2013-12-04 14:53:00,
2013-12-04 08:58:00,53.7,46.0,29.70,SW,226,2.0,5.0,75,0.00,,,0.00,WUHU216DAVISVP2,2013-12-04 14:58:00,
2013-12-04 09:03:00,53.8,45.4,29.71,SSW,203,3.0,5.0,73,0.00,,,0.00,WUHU216DAVISVP2,2013-12-04 15:03:00,
2013-12-04 09:08:00,54.2,45.8,29.71,SW,224,2.0,5.0,73,0.00,,,0.00,WUHU216DAVISVP2,2013-12-04 15:08:00,
2013-12-04 09:13:00,54.7,46.2,29.71,SSW,204,2.0,5.0,73,0.00,,,0.00,WUHU216DAVISVP2,2013-12-04 15:13:00,
2013-12-04 09:18:00,55.1,46.7,29.71,WSW,239,4.0,5.0,73,0.00,,,0.00,WUHU216DAVISVP2,2013-12-04 15:18:00,
2013-12-04 09:23:00,55.3,46.4,29.72,SW,235,3.0,5.0,72,0.00,,,0.00,WUHU216DAVISVP2,2013-12-04 15:23:00,
2013-12-04 09:28:00,55.5,47.0,29.72,WSW,238,3.0,4.0,73,0.00,,,0.00,WUHU216DAVISVP2,2013-12-04 15:28:00,
2013-12-04 09:33:00,55.5,46.6,29.72,West,278,2.0,4.0,72,0.00,,,0.00,WUHU216DAVISVP2,2013-12-04 15:33:00,
2013-12-04 09:38:00,55.3,46.5,29.72,West,271,1.0,4.0,72,0.00,,,0.00,WUHU216DAVISVP2,2013-12-04 15:38:00,
2013-12-04 09:43:00,55.6,47.2,29.72,SW,219,1.0,4.0,73,0.00,,,0.00,WUHU216DAVISVP2,2013-12-04 15:43:00,
2013-12-04 09:48:00,56.6,47.8,29.72,SSW,205,2.0,4.0,72,0.00,,,0.00,WUHU216DAVISVP2,2013-12-04 15:48:00,
2013-12-04 09:53:00,57.8,48.5,29.72,SSW,211,4.0,5.0,71,0.00,,,0.00,WUHU216DAVISVP2,2013-12-04 15:53:00,
2013-12-04 09:58:00,59.0,48.6,29.73,SSW,194,2.0,6.0,68,0.00,,,0.00,WUHU216DAVISVP2,2013-12-04 15:58:00,
2013-12-04 10:03:00,60.3,49.0,29.73,WSW,256,4.0,6.0,66,0.00,,,0.00,WUHU216DAVISVP2,2013-12-04 16:03:00,
2013-12-04 10:08:00,61.3,48.7,29.73,West,261,2.0,5.0,63,0.00,,,0.00,WUHU216DAVISVP2,2013-12-04 16:08:00,
2013-12-04 10:13:00,62.5,48.1,29.73,West,271,3.0,9.0,59,0.00,,,0.00,WUHU216DAVISVP2,2013-12-04 16:13:00,
2013-12-04 10:18:00,63.1,46.8,29.73,West,270,5.0,9.0,55,0.00,,,0.00,WUHU216DAVISVP2,2013-12-04 16:18:00,
2013-12-04 10:23:00,63.4,46.5,29.73,West,259,4.0,9.0,54,0.00,,,0.00,WUHU216DAVISVP2,2013-12-04 16:23:00,
2013-12-04 10:28:00,63.9,47.0,29.73,WSW,252,8.0,9.0,54,0.00,,,0.00,WUHU216DAVISVP2,2013-12-04 16:28:00,
2013-12-04 10:33:00,64.1,46.2,29.73,West,264,4.0,10.0,52,0.00,,,0.00,WUHU216DAVISVP2,2013-12-04 16:33:00,
2013-12-04 10:38:00,64.4,45.3,29.74,NW,322,8.0,11.0,50,0.00,,,0.00,WUHU216DAVISVP2,2013-12-04 16:38:00,
2013-12-04 10:43:00,64.0,43.9,29.74,West,281,5.0,11.0,48,0.00,,,0.00,WUHU216DAVISVP2,2013-12-04 16:43:00,
2013-12-04 10:48:00,63.8,43.2,29.74,West,278,4.0,13.0,47,0.00,,,0.00,WUHU216DAVISVP2,2013-12-04 16:48:00,
2013-12-04 10:53:00,63.5,41.7,29.74,West,262,7.0,13.0,45,0.00,,,0.00,WUHU216DAVISVP2,2013-12-04 16:53:00,
2013-12-04 10:58:00,63.3,40.9,29.74,WNW,294,4.0,12.0,44,0.00,,,0.00,WUHU216DAVISVP2,2013-12-04 16:58:00,
2013-12-04 11:03:00,63.4,40.5,29.75,West,276,3.0,12.0,43,0.00,,,0.00,WUHU216DAVISVP2,2013-12-04 17:03:00,
2013-12-04 11:08:00,63.5,39.9,29.75,NW,325,6.0,10.0,42,0.00,,,0.00,WUHU216DAVISVP2,2013-12-04 17:08:00,
2013-12-04 11:13:00,62.8,38.6,29.74,NW,304,5.0,10.0,41,0.00,,,0.00,WUHU216DAVISVP2,2013-12-04 17:13:00,
2013-12-04 11:18:00,62.9,39.4,29.74,WNW,288,3.0,10.0,42,0.00,,,0.00,WUHU216DAVISVP2,2013-12-04 17:18:00,
2013-12-04 11:23:00,63.1,39.6,29.74,WSW,250,5.0,10.0,42,0.00,,,0.00,WUHU216DAVISVP2,2013-12-04 17:23:00,
2013-12-04 11:28:00,63.2,39.1,29.73,SW,219,0.0,10.0,41,0.00,,,0.00,WUHU216DAVISVP2,2013-12-04 17:28:00,
2013-12-04 11:33:00,63.7,40.2,29.73,WNW,294,4.0,7.0,42,0.00,,,0.00,WUHU216DAVISVP2,2013-12-04 17:33:00,
2013-12-04 11:38:00,63.6,39.5,29.73,NW,318,4.0,6.0,41,0.00,,,0.00,WUHU216DAVISVP2,2013-12-04 17:38:00,
2013-12-04 11:43:00,63.8,39.6,29.73,WNW,299,1.0,6.0,41,0.00,,,0.00,WUHU216DAVISVP2,2013-12-04 17:43:00,
2013-12-04 11:48:00,64.3,40.1,29.73,WNW,283,4.0,6.0,41,0.00,,,0.00,WUHU216DAVISVP2,2013-12-04 17:48:00,
2013-12-04 11:53:00,64.9,39.9,29.73,NW,322,4.0,6.0,40,0.00,,,0.00,WUHU216DAVISVP2,2013-12-04 17:53:00,
2013-12-04 11:58:00,65.0,39.3,29.73,West,280,2.0,7.0,39,0.00,,,0.00,WUHU216DAVISVP2,2013-12-04 17:58:00,
2013-12-04 12:03:00,65.1,39.4,29.73,SW,236,2.0,7.0,39,0.00,,,0.00,WUHU216DAVISVP2,2013-12-04 18:03:00,
2013-12-04 12:08:00,65.4,40.3,29.72,West,274,4.0,9.0,40,0.00,,,0.00,WUHU216DAVISVP2,2013-12-04 18:08:00,
2013-12-04 12:13:00,65.6,39.8,29.72,West,278,2.0,10.0,39,0.00,,,0.00,WUHU216DAVISVP2,2013-12-04 18:13:00,
2013-12-04 12:18:00,65.8,40.7,29.72,NW,305,3.0,10.0,40,0.00,,,0.00,WUHU216DAVISVP2,2013-12-04 18:18:00,
2013-12-04 12:23:00,65.4,40.3,29.71,NW,322,2.0,10.0,40,0.00,,,0.00,WUHU216DAVISVP2,2013-12-04 18:23:00,
2013-12-04 12:28:00,65.4,40.3,29.71,NW,314,5.0,8.0,40,0.00,,,0.00,WUHU216DAVISVP2,2013-12-04 18:28:00,
2013-12-04 12:33:00,65.4,40.3,29.71,NNW,330,3.0,8.0,40,0.00,,,0.00,WUHU216DAVISVP2,2013-12-04 18:33:00,
2013-12-04 12:38:00,65.8,40.7,29.71,NW,308,4.0,7.0,40,0.00,,,0.00,WUHU216DAVISVP2,2013-12-04 18:38:00,
2013-12-04 12:43:00,66.3,41.1,29.70,NW,316,5.0,7.0,40,0.00,,,0.00,WUHU216DAVISVP2,2013-12-04 18:43:00,
2013-12-04 12:48:00,66.1,40.3,29.71,WNW,291,1.0,7.0,39,0.00,,,0.00,WUHU216DAVISVP2,2013-12-04 18:48:00,
2013-12-04 12:53:00,66.6,40.7,29.71,West,271,3.0,6.0,39,0.00,,,0.00,WUHU216DAVISVP2,2013-12-04 18:53:00,
2013-12-04 12:58:00,66.6,40.7,29.71,NW,305,2.0,7.0,39,0.00,,,0.00,WUHU216DAVISVP2,2013-12-04 18:58:00,
2013-12-04 13:03:00,66.3,40.4,29.71,West,267,6.0,7.0,39,0.00,,,0.00,WUHU216DAVISVP2,2013-12-04 19:03:00,
2013-12-04 13:08:00,66.2,40.4,29.71,WSW,249,1.0,8.0,39,0.00,,,0.00,WUHU216DAVISVP2,2013-12-04 19:08:00,
2013-12-04 13:13:00,66.3,40.4,29.72,West,270,2.0,8.0,39,0.00,,,0.00,WUHU216DAVISVP2,2013-12-04 19:13:00,
2013-12-04 13:18:00,66.1,40.3,29.72,West,259,8.0,9.0,39,0.00,,,0.00,WUHU216DAVISVP2,2013-12-04 19:18:00,
2013-12-04 13:23:00,66.3,41.1,29.72,WNW,284,7.0,9.0,40,0.00,,,0.00,WUHU216DAVISVP2,2013-12-04 19:23:00,
2013-12-04 13:28:00,66.3,40.4,29.71,WNW,302,4.0,10.0,39,0.00,,,0.00,WUHU216DAVISVP2,2013-12-04 19:28:00,
2013-12-04 13:33:00,66.4,40.5,29.71,West,277,6.0,10.0,39,0.00,,,0.00,WUHU216DAVISVP2,2013-12-04 19:33:00,
2013-12-04 13:38:00,66.2,41.0,29.71,West,281,4.0,10.0,40,0.00,,,0.00,WUHU216DAVISVP2,2013-12-04 19:38:00,
2013-12-04 13:43:00,66.3,41.8,29.71,NW,321,4.0,9.0,41,0.00,,,0.00,WUHU216DAVISVP2,2013-12-04 19:43:00,
2013-12-04 13:48:00,66.2,41.7,29.71,West,278,5.0,9.0,41,0.00,,,0.00,WUHU216DAVISVP2,2013-12-04 19:48:00,
2013-12-04 13:53:00,65.7,41.9,29.71,North,11,6.0,10.0,42,0.00,,,0.00,WUHU216DAVISVP2,2013-12-04 19:53:00,
2013-12-04 13:58:00,65.8,42.0,29.72,West,281,4.0,10.0,42,0.00,,,0.00,WUHU216DAVISVP2,2013-12-04 19:58:00,
2013-12-04 14:03:00,66.0,42.1,29.72,WNW,286,4.0,10.0,42,0.00,,,0.00,WUHU216DAVISVP2,2013-12-04 20:03:00,
2013-12-04 14:08:00,65.6,42.4,29.72,NW,323,9.0,10.0,43,0.00,,,0.00,WUHU216DAVISVP2,2013-12-04 20:08:00,
2013-12-04 14:13:00,65.2,42.7,29.72,West,274,3.0,11.0,44,0.00,,,0.00,WUHU216DAVISVP2,2013-12-04 20:13:00,
2013-12-04 14:18:00,65.5,42.3,29.72,West,267,3.0,11.0,43,0.00,,,0.00,WUHU216DAVISVP2,2013-12-04 20:18:00,
2013-12-04 14:23:00,65.4,42.8,29.72,NW,312,7.0,11.0,44,0.00,,,0.00,WUHU216DAVISVP2,2013-12-04 20:23:00,
2013-12-04 14:28:00,65.1,43.2,29.72,WNW,293,3.0,10.0,45,0.00,,,0.00,WUHU216DAVISVP2,2013-12-04 20:28:00,
2013-12-04 14:33:00,64.7,44.0,29.71,NW,321,6.0,10.0,47,0.00,,,0.00,WUHU216DAVISVP2,2013-12-04 20:33:00,
2013-12-04 14:38:00,64.3,43.6,29.72,NNW,342,5.0,10.0,47,0.00,,,0.00,WUHU216DAVISVP2,2013-12-04 20:38:00,
2013-12-04 14:43:00,64.0,43.9,29.71,WNW,294,4.0,9.0,48,0.00,,,0.00,WUHU216DAVISVP2,2013-12-04 20:43:00,
2013-12-04 14:48:00,64.2,44.1,29.71,NW,309,2.0,9.0,48,0.00,,,0.00,WUHU216DAVISVP2,2013-12-04 20:48:00,
2013-12-04 14:53:00,64.3,44.2,29.71,North,351,6.0,9.0,48,0.00,,,0.00,WUHU216DAVISVP2,2013-12-04 20:53:00,
2013-12-04 14:58:00,64.5,44.4,29.71,North,6,3.0,9.0,48,0.00,,,0.00,WUHU216DAVISVP2,2013-12-04 20:58:00,
2013-12-04 15:03:00,64.3,43.6,29.71,NW,318,3.0,9.0,47,0.00,,,0.00,WUHU216DAVISVP2,2013-12-04 21:03:00,
2013-12-04 15:08:00,64.2,44.1,29.71,NNW,338,4.0,9.0,48,0.00,,,0.00,WUHU216DAVISVP2,2013-12-04 21:08:00,
2013-12-04 15:13:00,64.2,44.1,29.71,NW,313,3.0,8.0,48,0.00,,,0.00,WUHU216DAVISVP2,2013-12-04 21:13:00,
2013-12-04 15:18:00,64.3,44.2,29.71,NNW,333,3.0,9.0,48,0.00,,,0.00,WUHU216DAVISVP2,2013-12-04 21:18:00,
2013-12-04 15:23:00,64.2,44.1,29.72,NW,314,3.0,9.0,48,0.00,,,0.00,WUHU216DAVISVP2,2013-12-04 21:23:00,
2013-12-04 15:28:00,64.2,44.1,29.72,NW,322,3.0,9.0,48,0.00,,,0.00,WUHU216DAVISVP2,2013-12-04 21:28:00,
2013-12-04 15:33:00,63.9,43.8,29.72,WNW,300,6.0,9.0,48,0.00,,,0.00,WUHU216DAVISVP2,2013-12-04 21:33:00,
2013-12-04 15:38:00,63.8,44.3,29.72,NW,315,4.0,9.0,49,0.00,,,0.00,WUHU216DAVISVP2,2013-12-04 21:38:00,
2013-12-04 15:43:00,63.6,44.1,29.72,WNW,301,3.0,9.0,49,0.00,,,0.00,WUHU216DAVISVP2,2013-12-04 21:43:00,
2013-12-04 15:48:00,63.3,44.9,29.73,NNW,338,3.0,10.0,51,0.00,,,0.00,WUHU216DAVISVP2,2013-12-04 21:48:00,
2013-12-04 15:53:00,62.9,46.1,29.72,NE,41,5.0,10.0,54,0.00,,,0.00,WUHU216DAVISVP2,2013-12-04 21:53:00,
2013-12-04 15:58:00,62.4,45.6,29.73,North,358,4.0,10.0,54,0.00,,,0.00,WUHU216DAVISVP2,2013-12-04 21:58:00,
2013-12-04 16:03:00,61.8,45.0,29.73,NNW,340,5.0,10.0,54,0.00,,,0.00,WUHU216DAVISVP2,2013-12-04 22:03:00,
2013-12-04 16:08:00,61.0,44.8,29.74,NW,307,5.0,11.0,55,0.00,,,0.00,WUHU216DAVISVP2,2013-12-04 22:08:00,
2013-12-04 16:13:00,60.7,45.0,29.74,NW,309,8.0,11.0,56,0.00,,,0.00,WUHU216DAVISVP2,2013-12-04 22:13:00,
2013-12-04 16:18:00,60.4,44.7,29.74,WNW,299,2.0,11.0,56,0.00,,,0.00,WUHU216DAVISVP2,2013-12-04 22:18:00,
2013-12-04 16:23:00,59.9,44.7,29.75,NNE,32,7.0,11.0,57,0.00,,,0.00,WUHU216DAVISVP2,2013-12-04 22:23:00,
2013-12-04 16:28:00,59.3,44.2,29.75,NW,308,3.0,11.0,57,0.00,,,0.00,WUHU216DAVISVP2,2013-12-04 22:28:00,
2013-12-04 16:33:00,58.8,44.2,29.75,NW,309,4.0,11.0,58,0.00,,,0.00,WUHU216DAVISVP2,2013-12-04 22:33:00,
2013-12-04 16:38:00,58.3,44.1,29.75,NNW,331,2.0,11.0,59,0.00,,,0.00,WUHU216DAVISVP2,2013-12-04 22:38:00,
2013-12-04 16:43:00,58.0,44.3,29.75,NW,326,4.0,9.0,60,0.00,,,0.00,WUHU216DAVISVP2,2013-12-04 22:43:00,
2013-12-04 16:48:00,57.6,43.9,29.75,NNW,329,2.0,8.0,60,0.00,,,0.00,WUHU216DAVISVP2,2013-12-04 22:48:00,
2013-12-04 16:53:00,57.3,44.1,29.75,NNE,32,3.0,8.0,61,0.00,,,0.00,WUHU216DAVISVP2,2013-12-04 22:53:00,
2013-12-04 16:58:00,57.0,43.8,29.75,NW,325,3.0,8.0,61,0.00,,,0.00,WUHU216DAVISVP2,2013-12-04 22:58:00,
2013-12-04 17:03:00,56.7,43.9,29.76,NNE,27,4.0,8.0,62,0.00,,,0.00,WUHU216DAVISVP2,2013-12-04 23:03:00,
2013-12-04 17:08:00,56.4,43.7,29.76,North,357,5.0,10.0,62,0.00,,,0.00,WUHU216DAVISVP2,2013-12-04 23:08:00,
2013-12-04 17:13:00,56.2,43.0,29.77,NW,305,5.0,10.0,61,0.00,,,0.00,WUHU216DAVISVP2,2013-12-04 23:13:00,
2013-12-04 17:18:00,56.0,43.3,29.76,NNW,333,3.0,11.0,62,0.00,,,0.00,WUHU216DAVISVP2,2013-12-04 23:18:00,
2013-12-04 17:23:00,55.7,43.0,29.76,North,349,6.0,11.0,62,0.00,,,0.00,WUHU216DAVISVP2,2013-12-04 23:23:00,
2013-12-04 17:28:00,55.5,42.8,29.76,NW,313,2.0,11.0,62,0.00,,,0.00,WUHU216DAVISVP2,2013-12-04 23:28:00,
2013-12-04 17:33:00,55.3,42.6,29.75,NNW,328,4.0,9.0,62,0.00,,,0.00,WUHU216DAVISVP2,2013-12-04 23:33:00,
2013-12-04 17:38:00,55.0,42.8,29.76,NNW,342,4.0,8.0,63,0.00,,,0.00,WUHU216DAVISVP2,2013-12-04 23:38:00,
2013-12-04 17:43:00,54.8,42.6,29.76,NW,319,3.0,8.0,63,0.00,,,0.00,WUHU216DAVISVP2,2013-12-04 23:43:00,
2013-12-04 17:48:00,54.5,42.7,29.77,NNW,334,5.0,7.0,64,0.00,,,0.00,WUHU216DAVISVP2,2013-12-04 23:48:00,
2013-12-04 17:53:00,54.2,42.4,29.77,NW,321,3.0,9.0,64,0.00,,,0.00,WUHU216DAVISVP2,2013-12-04 23:53:00,
2013-12-04 17:58:00,54.0,42.6,29.77,WNW,300,3.0,9.0,65,0.00,,,0.00,WUHU216DAVISVP2,2013-12-04 23:58:00,
2013-12-04 18:03:00,53.9,42.5,29.77,NW,324,3.0,9.0,65,0.00,,,0.00,WUHU216DAVISVP2,2013-12-05 00:03:00,
2013-12-04 18:08:00,53.8,42.4,29.77,NNW,328,6.0,9.0,65,0.00,,,0.00,WUHU216DAVISVP2,2013-12-05 00:08:00,
2013-12-04 18:13:00,53.6,42.2,29.77,NNE,25,4.0,9.0,65,0.00,,,0.00,WUHU216DAVISVP2,2013-12-05 00:13:00,
2013-12-04 18:18:00,53.4,42.0,29.78,NNW,328,5.0,9.0,65,0.00,,,0.00,WUHU216DAVISVP2,2013-12-05 00:18:00,
2013-12-04 18:23:00,53.2,41.9,29.79,NW,311,6.0,13.0,65,0.00,,,0.00,WUHU216DAVISVP2,2013-12-05 00:23:00,
2013-12-04 18:28:00,52.9,41.6,29.79,NW,305,6.0,13.0,65,0.00,,,0.00,WUHU216DAVISVP2,2013-12-05 00:28:00,
2013-12-04 18:33:00,52.6,41.7,29.80,WNW,300,6.0,13.0,66,0.00,,,0.00,WUHU216DAVISVP2,2013-12-05 00:33:00,
2013-12-04 18:38:00,52.4,41.5,29.80,NW,321,8.0,13.0,66,0.00,,,0.00,WUHU216DAVISVP2,2013-12-05 00:38:00,
2013-12-04 18:43:00,52.2,40.8,29.80,NW,322,7.0,10.0,65,0.00,,,0.00,WUHU216DAVISVP2,2013-12-05 00:43:00,
2013-12-04 18:48:00,52.0,40.6,29.80,NW,321,4.0,11.0,65,0.00,,,0.00,WUHU216DAVISVP2,2013-12-05 00:48:00,
2013-12-04 18:53:00,51.8,40.5,29.80,NNW,340,6.0,13.0,65,0.00,,,0.00,WUHU216DAVISVP2,2013-12-05 00:53:00,
2013-12-04 18:58:00,51.6,40.3,29.81,NNW,336,6.0,13.0,65,0.00,,,0.00,WUHU216DAVISVP2,2013-12-05 00:58:00,
2013-12-04 19:03:00,51.3,40.4,29.81,NW,321,8.0,13.0,66,0.00,,,0.00,WUHU216DAVISVP2,2013-12-05 01:03:00,
2013-12-04 19:08:00,51.1,40.2,29.81,NNW,336,6.0,13.0,66,0.00,,,0.00,WUHU216DAVISVP2,2013-12-05 01:08:00,
2013-12-04 19:13:00,50.8,40.3,29.81,NNW,335,7.0,12.0,67,0.00,,,0.00,WUHU216DAVISVP2,2013-12-05 01:13:00,
2013-12-04 19:18:00,50.7,40.3,29.81,NNW,336,2.0,12.0,67,0.00,,,0.00,WUHU216DAVISVP2,2013-12-05 01:18:00,
2013-12-04 19:23:00,50.5,40.4,29.81,NW,324,5.0,11.0,68,0.00,,,0.00,WUHU216DAVISVP2,2013-12-05 01:23:00,
2013-12-04 19:28:00,50.4,40.3,29.82,NNE,18,7.0,15.0,68,0.00,,,0.00,WUHU216DAVISVP2,2013-12-05 01:28:00,
2013-12-04 19:33:00,50.2,39.8,29.82,NNE,23,9.0,15.0,67,0.00,,,0.00,WUHU216DAVISVP2,2013-12-05 01:33:00,
2013-12-04 19:38:00,50.0,40.0,29.82,North,357,6.0,14.0,68,0.00,,,0.00,WUHU216DAVISVP2,2013-12-05 01:38:00,
2013-12-04 19:43:00,49.7,39.6,29.82,NNW,339,4.0,14.0,68,0.00,,,0.00,WUHU216DAVISVP2,2013-12-05 01:43:00,
2013-12-04 19:48:00,49.5,39.7,29.82,NW,318,2.0,13.0,69,0.00,,,0.00,WUHU216DAVISVP2,2013-12-05 01:48:00,
2013-12-04 19:53:00,49.2,39.6,29.82,NE,36,5.0,13.0,69,0.00,,,0.00,WUHU216DAVISVP2,2013-12-05 01:53:00,
2013-12-04 19:58:00,49.0,39.0,29.83,NNW,341,4.0,15.0,68,0.00,,,0.00,WUHU216DAVISVP2,2013-12-05 01:58:00,
2013-12-04 20:03:00,48.8,38.8,29.84,NNE,19,10.0,15.0,68,0.00,,,0.00,WUHU216DAVISVP2,2013-12-05 02:03:00,
2013-12-04 20:08:00,48.7,38.7,29.84,North,8,6.0,15.0,68,0.00,,,0.00,WUHU216DAVISVP2,2013-12-05 02:08:00,
2013-12-04 20:13:00,48.5,38.5,29.84,NNW,332,5.0,15.0,68,0.00,,,0.00,WUHU216DAVISVP2,2013-12-05 02:13:00,
2013-12-04 20:18:00,48.1,37.8,29.84,NE,38,6.0,16.0,67,0.00,,,0.00,WUHU216DAVISVP2,2013-12-05 02:18:00,
2013-12-04 20:23:00,47.7,37.4,29.85,NE,54,8.0,16.0,67,0.00,,,0.00,WUHU216DAVISVP2,2013-12-05 02:23:00,
2013-12-04 20:28:00,47.6,37.3,29.86,NW,311,5.0,16.0,67,0.00,,,0.00,WUHU216DAVISVP2,2013-12-05 02:28:00,
2013-12-04 20:33:00,47.5,37.2,29.86,NW,319,11.0,16.0,67,0.00,,,0.00,WUHU216DAVISVP2,2013-12-05 02:33:00,
2013-12-04 20:38:00,47.2,36.9,29.86,NE,50,5.0,16.0,67,0.00,,,0.00,WUHU216DAVISVP2,2013-12-05 02:38:00,
2013-12-04 20:43:00,46.9,36.6,29.86,NW,324,12.0,15.0,67,0.00,,,0.00,WUHU216DAVISVP2,2013-12-05 02:43:00,
2013-12-04 20:48:00,46.5,36.2,29.87,NNW,347,10.0,15.0,67,0.00,,,0.00,WUHU216DAVISVP2,2013-12-05 02:48:00,
2013-12-04 20:53:00,46.4,36.1,29.86,NW,315,7.0,15.0,67,0.00,,,0.00,WUHU216DAVISVP2,2013-12-05 02:53:00,
2013-12-04 20:58:00,46.2,35.9,29.86,NNW,335,9.0,15.0,67,0.00,,,0.00,WUHU216DAVISVP2,2013-12-05 02:58:00,
2013-12-04 21:03:00,46.0,35.8,29.87,WNW,303,10.0,17.0,67,0.00,,,0.00,WUHU216DAVISVP2,2013-12-05 03:03:00,
2013-12-04 21:08:00,45.8,35.9,29.87,NW,307,10.0,17.0,68,0.00,,,0.00,WUHU216DAVISVP2,2013-12-05 03:08:00,
2013-12-04 21:13:00,45.6,35.7,29.87,North,1,11.0,17.0,68,0.00,,,0.00,WUHU216DAVISVP2,2013-12-05 03:13:00,
2013-12-04 21:18:00,45.3,35.5,29.87,North,356,10.0,17.0,68,0.00,,,0.00,WUHU216DAVISVP2,2013-12-05 03:18:00,
2013-12-04 21:23:00,45.1,35.3,29.87,NNE,12,5.0,17.0,68,0.00,,,0.00,WUHU216DAVISVP2,2013-12-05 03:23:00,
2013-12-04 21:28:00,44.8,35.2,29.87,North,352,3.0,17.0,69,0.00,,,0.00,WUHU216DAVISVP2,2013-12-05 03:28:00,
2013-12-04 21:33:00,44.7,35.2,29.88,North,5,5.0,16.0,69,0.00,,,0.00,WUHU216DAVISVP2,2013-12-05 03:33:00,
2013-12-04 21:38:00,44.5,35.0,29.89,NNE,33,4.0,14.0,69,0.00,,,0.00,WUHU216DAVISVP2,2013-12-05 03:38:00,
2013-12-04 21:43:00,44.4,34.9,29.89,NW,307,10.0,14.0,69,0.00,,,0.00,WUHU216DAVISVP2,2013-12-05 03:43:00,
2013-12-04 21:48:00,44.3,35.1,29.89,WNW,302,8.0,15.0,70,0.00,,,0.00,WUHU216DAVISVP2,2013-12-05 03:48:00,
2013-12-04 21:53:00,44.1,34.9,29.89,North,352,6.0,15.0,70,0.00,,,0.00,WUHU216DAVISVP2,2013-12-05 03:53:00,
2013-12-04 21:58:00,43.9,34.7,29.89,NNE,12,11.0,15.0,70,0.00,,,0.00,WUHU216DAVISVP2,2013-12-05 03:58:00,
2013-12-04 22:03:00,43.7,34.6,29.89,NNW,328,7.0,13.0,70,0.00,,,0.00,WUHU216DAVISVP2,2013-12-05 04:03:00,
2013-12-04 22:08:00,43.7,34.6,29.90,North,359,7.0,14.0,70,0.00,,,0.00,WUHU216DAVISVP2,2013-12-05 04:08:00,
2013-12-04 22:13:00,43.5,34.1,29.90,North,8,10.0,18.0,69,0.00,,,0.00,WUHU216DAVISVP2,2013-12-05 04:13:00,
2013-12-04 22:18:00,43.3,33.9,29.91,NNE,13,10.0,18.0,69,0.00,,,0.00,WUHU216DAVISVP2,2013-12-05 04:18:00,
2013-12-04 22:23:00,43.2,33.8,29.91,NNW,345,16.0,18.0,69,0.00,,,0.00,WUHU216DAVISVP2,2013-12-05 04:23:00,
2013-12-04 22:28:00,43.0,33.6,29.92,NW,318,10.0,17.0,69,0.00,,,0.00,WUHU216DAVISVP2,2013-12-05 04:28:00,
2013-12-04 22:33:00,42.7,33.7,29.93,WNW,300,18.0,22.0,70,0.00,,,0.00,WUHU216DAVISVP2,2013-12-05 04:33:00,
2013-12-04 22:38:00,42.2,33.2,29.93,NNE,16,13.0,24.0,70,0.00,,,0.00,WUHU216DAVISVP2,2013-12-05 04:38:00,
2013-12-04 22:43:00,41.9,32.9,29.92,NNW,330,4.0,24.0,70,0.00,,,0.00,WUHU216DAVISVP2,2013-12-05 04:43:00,
2013-12-04 22:48:00,41.7,32.7,29.92,NNW,332,15.0,24.0,70,0.00,,,0.00,WUHU216DAVISVP2,2013-12-05 04:48:00,
2013-12-04 22:53:00,41.5,32.4,29.93,NNW,330,6.0,19.0,70,0.00,,,0.00,WUHU216DAVISVP2,2013-12-05 04:53:00,
2013-12-04 22:58:00,41.3,32.3,29.92,North,1,9.0,19.0,70,0.00,,,0.00,WUHU216DAVISVP2,2013-12-05 04:58:00,
2013-12-04 23:01:00,41.3,32.3,29.92,NNE,18,7.0,19.0,70,0.00,,,0.00,WUHU216DAVISVP2,2013-12-05 05:01:00,
2013-12-04 23:02:00,41.3,32.7,29.92,WNW,300,7.0,19.0,71,0.00,,,0.00,WUHU216DAVISVP2,2013-12-05 05:02:00,
2013-12-04 23:07:00,41.0,32.0,29.93,NW,316,11.0,19.0,70,0.00,,,0.00,WUHU216DAVISVP2,2013-12-05 05:07:00,
2013-12-04 23:12:00,40.6,31.7,29.93,NW,307,15.0,18.0,70,0.00,,,0.00,WUHU216DAVISVP2,2013-12-05 05:12:00,
2013-12-04 23:17:00,40.4,31.5,29.93,NNW,343,9.0,18.0,70,0.00,,,0.00,WUHU216DAVISVP2,2013-12-05 05:17:00,
2013-12-04 23:22:00,40.1,31.2,29.93,WNW,293,11.0,18.0,70,0.00,,,0.00,WUHU216DAVISVP2,2013-12-05 05:22:00,
2013-12-04 23:27:00,39.9,31.0,29.93,NW,319,10.0,22.0,70,0.00,,,0.00,WUHU216DAVISVP2,2013-12-05 05:27:00,
2013-12-04 23:32:00,39.7,30.8,29.93,NW,309,6.0,22.0,70,0.00,,,0.00,WUHU216DAVISVP2,2013-12-05 05:32:00,
2013-12-04 23:37:00,39.6,31.0,29.94,NNE,14,14.0,22.0,71,0.00,,,0.00,WUHU216DAVISVP2,2013-12-05 05:37:00,
2013-12-04 23:42:00,39.5,30.9,29.94,NW,323,10.0,19.0,71,0.00,,,0.00,WUHU216DAVISVP2,2013-12-05 05:42:00,
2013-12-04 23:47:00,39.4,30.9,29.95,NW,314,9.0,18.0,71,0.00,,,0.00,WUHU216DAVISVP2,2013-12-05 05:47:00,
2013-12-04 23:52:00,39.4,30.8,29.95,North,8,8.0,19.0,71,0.00,,,0.00,WUHU216DAVISVP2,2013-12-05 05:52:00,
2013-12-04 23:57:00,39.3,30.7,29.95,NNW,339,5.0,19.0,71,0.00,,,0.00,WUHU216DAVISVP2,2013-12-05 05:57:00,